sensor_id;sensor_type;location;lat;lon;timestamp;P1;durP1;ratioP1;P2;durP2;ratioP2
23302;SDS011;11820;48.738;9.092;2022-11-20T00:01:16;4.13;;;3.57;;
23302;SDS011;11820;48.738;9.092;2022-11-20T00:03:42;5.67;;;4.17;;
23302;SDS011;11820;48.738;9.092;2022-11-20T00:06:08;5.17;;;4.17;;
23302;SDS011;11820;48.738;9.092;2022-11-20T00:08:36;4.73;;;3.80;;
23302;SDS011;11820;48.738;9.092;2022-11-20T00:11:05;4.00;;;3.60;;
23302;SDS011;11820;48.738;9.092;2022-11-20T00:13:32;5.17;;;4.47;;
23302;SDS011;11820;48.738;9.092;2022-11-20T00:15:58;4.23;;;3.83;;
23302;SDS011;11820;48.738;9.092;2022-11-20T00:18:25;5.23;;;3.83;;
23302;SDS011;11820;48.738;9.092;2022-11-20T00:20:51;4.17;;;3.77;;
23302;SDS011;11820;48.738;9.092;2022-11-20T00:23:16;5.40;;;4.00;;
23302;SDS011;11820;48.738;9.092;2022-11-20T00:25:42;4.40;;;3.50;;
23302;SDS011;11820;48.738;9.092;2022-11-20T00:28:07;4.63;;;3.50;;
23302;SDS011;11820;48.738;9.092;2022-11-20T00:30:32;5.30;;;3.43;;
23302;SDS011;11820;48.738;9.092;2022-11-20T00:32:58;5.00;;;3.40;;
23302;SDS011;11820;48.738;9.092;2022-11-20T00:35:23;4.30;;;3.30;;
23302;SDS011;11820;48.738;9.092;2022-11-20T00:37:48;3.50;;;3.20;;
23302;SDS011;11820;48.738;9.092;2022-11-20T00:40:14;4.73;;;3.40;;
23302;SDS011;11820;48.738;9.092;2022-11-20T00:42:39;4.10;;;3.67;;
23302;SDS011;11820;48.738;9.092;2022-11-20T00:45:04;3.57;;;3.27;;
23302;SDS011;11820;48.738;9.092;2022-11-20T00:47:30;3.57;;;3.27;;
23302;SDS011;11820;48.738;9.092;2022-11-20T00:49:55;3.63;;;3.10;;
23302;SDS011;11820;48.738;9.092;2022-11-20T00:52:21;3.87;;;3.10;;
23302;SDS011;11820;48.738;9.092;2022-11-20T00:54:46;4.37;;;3.97;;
23302;SDS011;11820;48.738;9.092;2022-11-20T00:57:11;3.77;;;3.07;;
23302;SDS011;11820;48.738;9.092;2022-11-20T00:59:36;3.43;;;3.13;;
23302;SDS011;11820;48.738;9.092;2022-11-20T01:02:02;3.50;;;3.20;;
23302;SDS011;11820;48.738;9.092;2022-11-20T01:04:27;4.57;;;3.20;;
23302;SDS011;11820;48.738;9.092;2022-11-20T01:06:52;3.60;;;3.00;;
23302;SDS011;11820;48.738;9.092;2022-11-20T01:09:18;4.27;;;3.23;;
23302;SDS011;11820;48.738;9.092;2022-11-20T01:11:43;5.00;;;2.77;;
23302;SDS011;11820;48.738;9.092;2022-11-20T01:14:11;4.10;;;2.90;;
23302;SDS011;11820;48.738;9.092;2022-11-20T01:16:43;5.50;;;3.10;;
23302;SDS011;11820;48.738;9.092;2022-11-20T01:19:11;5.90;;;3.40;;
23302;SDS011;11820;48.738;9.092;2022-11-20T01:21:39;4.77;;;3.27;;
23302;SDS011;11820;48.738;9.092;2022-11-20T01:24:07;3.53;;;3.00;;
23302;SDS011;11820;48.738;9.092;2022-11-20T01:26:37;3.50;;;3.20;;
23302;SDS011;11820;48.738;9.092;2022-11-20T01:29:04;3.37;;;2.77;;
23302;SDS011;11820;48.738;9.092;2022-11-20T01:31:34;4.17;;;3.53;;
23302;SDS011;11820;48.738;9.092;2022-11-20T01:34:07;3.33;;;3.03;;
23302;SDS011;11820;48.738;9.092;2022-11-20T01:36:39;3.80;;;3.20;;
23302;SDS011;11820;48.738;9.092;2022-11-20T01:39:07;4.50;;;3.13;;
23302;SDS011;11820;48.738;9.092;2022-11-20T01:41:36;3.77;;;3.37;;
23302;SDS011;11820;48.738;9.092;2022-11-20T01:44:21;5.17;;;3.70;;
23302;SDS011;11820;48.738;9.092;2022-11-20T01:47:07;3.40;;;3.10;;
23302;SDS011;11820;48.738;9.092;2022-11-20T01:52:19;3.90;;;3.17;;
23302;SDS011;11820;48.738;9.092;2022-11-20T01:55:21;3.43;;;3.13;;
23302;SDS011;11820;48.738;9.092;2022-11-20T01:57:59;4.37;;;3.00;;
23302;SDS011;11820;48.738;9.092;2022-11-20T02:00:26;4.80;;;3.47;;
23302;SDS011;11820;48.738;9.092;2022-11-20T02:02:57;4.97;;;3.60;;
23302;SDS011;11820;48.738;9.092;2022-11-20T02:05:26;3.43;;;3.13;;
23302;SDS011;11820;48.738;9.092;2022-11-20T02:07:57;3.70;;;3.20;;
23302;SDS011;11820;48.738;9.092;2022-11-20T02:10:24;4.00;;;3.07;;
23302;SDS011;11820;48.738;9.092;2022-11-20T02:12:50;4.33;;;2.83;;
23302;SDS011;11820;48.738;9.092;2022-11-20T02:15:34;4.63;;;3.40;;
23302;SDS011;11820;48.738;9.092;2022-11-20T02:18:00;4.33;;;3.17;;
23302;SDS011;11820;48.738;9.092;2022-11-20T02:20:26;4.40;;;3.40;;
23302;SDS011;11820;48.738;9.092;2022-11-20T02:25:23;5.03;;;4.50;;
23302;SDS011;11820;48.738;9.092;2022-11-20T02:27:51;3.27;;;2.80;;
23302;SDS011;11820;48.738;9.092;2022-11-20T02:30:16;4.00;;;2.83;;
23302;SDS011;11820;48.738;9.092;2022-11-20T02:32:42;2.83;;;2.60;;
23302;SDS011;11820;48.738;9.092;2022-11-20T02:37:46;2.70;;;2.50;;
23302;SDS011;11820;48.738;9.092;2022-11-20T02:40:13;3.17;;;2.57;;
23302;SDS011;11820;48.738;9.092;2022-11-20T02:42:39;3.37;;;2.83;;
23302;SDS011;11820;48.738;9.092;2022-11-20T02:45:04;3.43;;;3.00;;
23302;SDS011;11820;48.738;9.092;2022-11-20T02:47:31;3.70;;;2.83;;
23302;SDS011;11820;48.738;9.092;2022-11-20T02:49:56;3.00;;;2.50;;
23302;SDS011;11820;48.738;9.092;2022-11-20T02:52:22;6.57;;;3.23;;
23302;SDS011;11820;48.738;9.092;2022-11-20T02:54:48;3.13;;;2.77;;
23302;SDS011;11820;48.738;9.092;2022-11-20T02:57:13;4.90;;;2.97;;
23302;SDS011;11820;48.738;9.092;2022-11-20T02:59:38;4.03;;;2.67;;
23302;SDS011;11820;48.738;9.092;2022-11-20T03:02:04;3.80;;;3.40;;
23302;SDS011;11820;48.738;9.092;2022-11-20T03:04:29;4.40;;;3.40;;
23302;SDS011;11820;48.738;9.092;2022-11-20T03:06:55;8.70;;;3.63;;
23302;SDS011;11820;48.738;9.092;2022-11-20T03:09:20;3.67;;;3.37;;
23302;SDS011;11820;48.738;9.092;2022-11-20T03:11:46;3.40;;;3.10;;
23302;SDS011;11820;48.738;9.092;2022-11-20T03:14:11;3.50;;;3.20;;
23302;SDS011;11820;48.738;9.092;2022-11-20T03:16:37;4.00;;;3.70;;
23302;SDS011;11820;48.738;9.092;2022-11-20T03:19:02;4.67;;;3.60;;
23302;SDS011;11820;48.738;9.092;2022-11-20T03:21:27;4.20;;;3.80;;
23302;SDS011;11820;48.738;9.092;2022-11-20T03:23:53;4.27;;;3.87;;
23302;SDS011;11820;48.738;9.092;2022-11-20T03:26:23;4.60;;;3.97;;
23302;SDS011;11820;48.738;9.092;2022-11-20T03:28:54;4.27;;;3.87;;
23302;SDS011;11820;48.738;9.092;2022-11-20T03:31:25;4.20;;;3.60;;
23302;SDS011;11820;48.738;9.092;2022-11-20T03:33:52;4.43;;;3.80;;
23302;SDS011;11820;48.738;9.092;2022-11-20T03:36:18;4.90;;;4.40;;
23302;SDS011;11820;48.738;9.092;2022-11-20T03:38:44;4.97;;;4.10;;
23302;SDS011;11820;48.738;9.092;2022-11-20T03:41:14;6.57;;;4.17;;
23302;SDS011;11820;48.738;9.092;2022-11-20T03:43:46;4.90;;;3.70;;
23302;SDS011;11820;48.738;9.092;2022-11-20T03:46:32;5.03;;;4.27;;
23302;SDS011;11820;48.738;9.092;2022-11-20T03:48:58;5.90;;;4.10;;
23302;SDS011;11820;48.738;9.092;2022-11-20T03:51:25;4.17;;;3.77;;
23302;SDS011;11820;48.738;9.092;2022-11-20T03:53:55;4.90;;;4.40;;
23302;SDS011;11820;48.738;9.092;2022-11-20T03:56:23;5.70;;;4.27;;
23302;SDS011;11820;48.738;9.092;2022-11-20T03:58:50;4.87;;;3.80;;
23302;SDS011;11820;48.738;9.092;2022-11-20T04:01:17;7.33;;;4.47;;
23302;SDS011;11820;48.738;9.092;2022-11-20T04:03:47;4.23;;;3.83;;
23302;SDS011;11820;48.738;9.092;2022-11-20T04:06:17;4.67;;;4.17;;
23302;SDS011;11820;48.738;9.092;2022-11-20T04:08:44;5.57;;;4.60;;
23302;SDS011;11820;48.738;9.092;2022-11-20T04:11:10;4.07;;;3.77;;
23302;SDS011;11820;48.738;9.092;2022-11-20T04:13:36;5.97;;;4.17;;
23302;SDS011;11820;48.738;9.092;2022-11-20T04:16:02;5.40;;;4.50;;
23302;SDS011;11820;48.738;9.092;2022-11-20T04:18:27;4.67;;;4.27;;
23302;SDS011;11820;48.738;9.092;2022-11-20T04:20:53;5.27;;;4.50;;
23302;SDS011;11820;48.738;9.092;2022-11-20T04:23:18;6.13;;;4.13;;
23302;SDS011;11820;48.738;9.092;2022-11-20T04:25:43;5.17;;;4.17;;
23302;SDS011;11820;48.738;9.092;2022-11-20T04:28:09;7.70;;;4.10;;
23302;SDS011;11820;48.738;9.092;2022-11-20T04:30:34;4.47;;;4.03;;
23302;SDS011;11820;48.738;9.092;2022-11-20T04:33:00;6.07;;;3.93;;
23302;SDS011;11820;48.738;9.092;2022-11-20T04:35:25;4.43;;;4.03;;
23302;SDS011;11820;48.738;9.092;2022-11-20T04:37:51;5.13;;;4.40;;
23302;SDS011;11820;48.738;9.092;2022-11-20T04:40:17;5.23;;;4.03;;
23302;SDS011;11820;48.738;9.092;2022-11-20T04:42:42;6.00;;;4.17;;
23302;SDS011;11820;48.738;9.092;2022-11-20T04:45:07;4.73;;;3.90;;
23302;SDS011;11820;48.738;9.092;2022-11-20T04:47:33;4.23;;;3.83;;
23302;SDS011;11820;48.738;9.092;2022-11-20T04:49:58;4.33;;;3.93;;
23302;SDS011;11820;48.738;9.092;2022-11-20T04:52:23;4.57;;;4.17;;
23302;SDS011;11820;48.738;9.092;2022-11-20T04:54:49;6.07;;;4.30;;
23302;SDS011;11820;48.738;9.092;2022-11-20T04:57:17;5.27;;;4.17;;
23302;SDS011;11820;48.738;9.092;2022-11-20T04:59:43;6.27;;;3.97;;
23302;SDS011;11820;48.738;9.092;2022-11-20T05:02:08;3.07;;;2.77;;
23302;SDS011;11820;48.738;9.092;2022-11-20T05:04:34;4.00;;;3.70;;
23302;SDS011;11820;48.738;9.092;2022-11-20T05:06:59;4.27;;;3.87;;
23302;SDS011;11820;48.738;9.092;2022-11-20T05:09:24;5.73;;;3.40;;
23302;SDS011;11820;48.738;9.092;2022-11-20T05:11:49;4.13;;;3.60;;
23302;SDS011;11820;48.738;9.092;2022-11-20T05:14:15;3.90;;;3.50;;
23302;SDS011;11820;48.738;9.092;2022-11-20T05:16:40;3.90;;;3.50;;
23302;SDS011;11820;48.738;9.092;2022-11-20T05:19:06;5.43;;;3.30;;
23302;SDS011;11820;48.738;9.092;2022-11-20T05:21:32;4.33;;;3.73;;
23302;SDS011;11820;48.738;9.092;2022-11-20T05:23:57;4.63;;;3.47;;
23302;SDS011;11820;48.738;9.092;2022-11-20T05:26:23;4.67;;;3.10;;
23302;SDS011;11820;48.738;9.092;2022-11-20T05:28:49;4.03;;;3.50;;
23302;SDS011;11820;48.738;9.092;2022-11-20T05:31:16;4.10;;;3.70;;
23302;SDS011;11820;48.738;9.092;2022-11-20T05:33:45;4.00;;;3.60;;
23302;SDS011;11820;48.738;9.092;2022-11-20T05:36:12;3.60;;;3.17;;
23302;SDS011;11820;48.738;9.092;2022-11-20T05:38:39;4.43;;;3.60;;
23302;SDS011;11820;48.738;9.092;2022-11-20T05:41:06;5.47;;;3.77;;
23302;SDS011;11820;48.738;9.092;2022-11-20T05:43:35;3.80;;;3.50;;
23302;SDS011;11820;48.738;9.092;2022-11-20T05:46:02;4.87;;;3.53;;
23302;SDS011;11820;48.738;9.092;2022-11-20T05:48:28;4.27;;;2.70;;
23302;SDS011;11820;48.738;9.092;2022-11-20T05:50:54;3.50;;;3.20;;
23302;SDS011;11820;48.738;9.092;2022-11-20T05:53:19;4.00;;;3.03;;
23302;SDS011;11820;48.738;9.092;2022-11-20T05:55:44;3.53;;;3.17;;
23302;SDS011;11820;48.738;9.092;2022-11-20T05:58:09;4.10;;;3.10;;
23302;SDS011;11820;48.738;9.092;2022-11-20T06:00:35;4.60;;;3.53;;
23302;SDS011;11820;48.738;9.092;2022-11-20T06:03:01;3.67;;;3.13;;
23302;SDS011;11820;48.738;9.092;2022-11-20T06:05:26;3.60;;;3.30;;
23302;SDS011;11820;48.738;9.092;2022-11-20T06:07:52;5.00;;;3.37;;
23302;SDS011;11820;48.738;9.092;2022-11-20T06:10:17;4.20;;;3.07;;
23302;SDS011;11820;48.738;9.092;2022-11-20T06:12:42;3.97;;;3.03;;
23302;SDS011;11820;48.738;9.092;2022-11-20T06:15:08;4.27;;;2.83;;
23302;SDS011;11820;48.738;9.092;2022-11-20T06:17:34;3.67;;;3.13;;
23302;SDS011;11820;48.738;9.092;2022-11-20T06:19:59;3.60;;;3.17;;
23302;SDS011;11820;48.738;9.092;2022-11-20T06:22:24;5.30;;;2.80;;
23302;SDS011;11820;48.738;9.092;2022-11-20T06:24:49;3.10;;;2.80;;
23302;SDS011;11820;48.738;9.092;2022-11-20T06:27:15;2.50;;;2.30;;
23302;SDS011;11820;48.738;9.092;2022-11-20T06:29:40;3.07;;;2.77;;
23302;SDS011;11820;48.738;9.092;2022-11-20T06:32:06;3.90;;;2.80;;
23302;SDS011;11820;48.738;9.092;2022-11-20T06:34:31;4.80;;;2.67;;
23302;SDS011;11820;48.738;9.092;2022-11-20T06:36:57;4.27;;;2.37;;
23302;SDS011;11820;48.738;9.092;2022-11-20T06:39:22;2.87;;;2.57;;
23302;SDS011;11820;48.738;9.092;2022-11-20T06:41:47;2.50;;;2.30;;
23302;SDS011;11820;48.738;9.092;2022-11-20T06:44:12;3.27;;;2.93;;
23302;SDS011;11820;48.738;9.092;2022-11-20T06:46:38;3.30;;;2.83;;
23302;SDS011;11820;48.738;9.092;2022-11-20T06:49:03;3.13;;;2.77;;
23302;SDS011;11820;48.738;9.092;2022-11-20T06:51:28;2.87;;;2.57;;
23302;SDS011;11820;48.738;9.092;2022-11-20T06:53:54;2.70;;;2.50;;
23302;SDS011;11820;48.738;9.092;2022-11-20T06:56:20;3.60;;;2.80;;
23302;SDS011;11820;48.738;9.092;2022-11-20T06:58:45;3.60;;;2.60;;
23302;SDS011;11820;48.738;9.092;2022-11-20T07:01:11;2.83;;;2.63;;
23302;SDS011;11820;48.738;9.092;2022-11-20T07:03:38;2.87;;;2.67;;
23302;SDS011;11820;48.738;9.092;2022-11-20T07:06:04;5.00;;;3.17;;
23302;SDS011;11820;48.738;9.092;2022-11-20T07:08:30;3.90;;;2.50;;
23302;SDS011;11820;48.738;9.092;2022-11-20T07:10:57;2.90;;;2.50;;
23302;SDS011;11820;48.738;9.092;2022-11-20T07:13:27;2.93;;;2.73;;
23302;SDS011;11820;48.738;9.092;2022-11-20T07:15:52;5.20;;;2.60;;
23302;SDS011;11820;48.738;9.092;2022-11-20T07:18:18;2.50;;;2.30;;
23302;SDS011;11820;48.738;9.092;2022-11-20T07:20:43;3.90;;;3.03;;
23302;SDS011;11820;48.738;9.092;2022-11-20T07:23:09;3.50;;;2.77;;
23302;SDS011;11820;48.738;9.092;2022-11-20T07:25:34;2.50;;;2.23;;
23302;SDS011;11820;48.738;9.092;2022-11-20T07:27:59;4.90;;;2.47;;
23302;SDS011;11820;48.738;9.092;2022-11-20T07:30:29;2.43;;;2.23;;
23302;SDS011;11820;48.738;9.092;2022-11-20T07:32:56;2.73;;;2.47;;
23302;SDS011;11820;48.738;9.092;2022-11-20T07:35:22;2.80;;;2.60;;
23302;SDS011;11820;48.738;9.092;2022-11-20T07:37:48;3.57;;;2.53;;
23302;SDS011;11820;48.738;9.092;2022-11-20T07:40:14;2.50;;;2.10;;
23302;SDS011;11820;48.738;9.092;2022-11-20T07:42:50;2.77;;;2.20;;
23302;SDS011;11820;48.738;9.092;2022-11-20T07:45:20;2.60;;;2.33;;
23302;SDS011;11820;48.738;9.092;2022-11-20T07:47:46;3.73;;;2.60;;
23302;SDS011;11820;48.738;9.092;2022-11-20T07:50:12;2.43;;;2.03;;
23302;SDS011;11820;48.738;9.092;2022-11-20T07:52:38;2.60;;;2.37;;
23302;SDS011;11820;48.738;9.092;2022-11-20T07:55:04;2.97;;;2.30;;
23302;SDS011;11820;48.738;9.092;2022-11-20T07:57:30;4.20;;;2.30;;
23302;SDS011;11820;48.738;9.092;2022-11-20T07:59:55;2.33;;;2.13;;
23302;SDS011;11820;48.738;9.092;2022-11-20T08:02:20;2.87;;;1.93;;
23302;SDS011;11820;48.738;9.092;2022-11-20T08:04:46;2.47;;;2.27;;
23302;SDS011;11820;48.738;9.092;2022-11-20T08:07:11;2.73;;;2.20;;
23302;SDS011;11820;48.738;9.092;2022-11-20T08:09:36;2.30;;;1.90;;
23302;SDS011;11820;48.738;9.092;2022-11-20T08:12:01;2.13;;;1.93;;
23302;SDS011;11820;48.738;9.092;2022-11-20T08:14:45;1.70;;;1.60;;
23302;SDS011;11820;48.738;9.092;2022-11-20T08:17:11;2.73;;;2.20;;
23302;SDS011;11820;48.738;9.092;2022-11-20T08:19:37;2.57;;;2.30;;
23302;SDS011;11820;48.738;9.092;2022-11-20T08:22:02;2.57;;;1.80;;
23302;SDS011;11820;48.738;9.092;2022-11-20T08:24:27;2.80;;;1.93;;
23302;SDS011;11820;48.738;9.092;2022-11-20T08:26:53;2.50;;;1.80;;
23302;SDS011;11820;48.738;9.092;2022-11-20T08:29:18;2.57;;;2.37;;
23302;SDS011;11820;48.738;9.092;2022-11-20T08:31:43;2.47;;;1.87;;
23302;SDS011;11820;48.738;9.092;2022-11-20T08:34:09;1.80;;;1.70;;
23302;SDS011;11820;48.738;9.092;2022-11-20T08:36:34;2.40;;;2.20;;
23302;SDS011;11820;48.738;9.092;2022-11-20T08:39:02;1.87;;;1.77;;
23302;SDS011;11820;48.738;9.092;2022-11-20T08:41:28;1.97;;;1.77;;
23302;SDS011;11820;48.738;9.092;2022-11-20T08:44:04;2.20;;;2.00;;
23302;SDS011;11820;48.738;9.092;2022-11-20T08:46:35;2.00;;;1.80;;
23302;SDS011;11820;48.738;9.092;2022-11-20T08:49:05;2.03;;;1.80;;
23302;SDS011;11820;48.738;9.092;2022-11-20T08:51:32;2.30;;;2.10;;
23302;SDS011;11820;48.738;9.092;2022-11-20T08:53:58;1.70;;;1.60;;
23302;SDS011;11820;48.738;9.092;2022-11-20T08:56:23;2.10;;;1.90;;
23302;SDS011;11820;48.738;9.092;2022-11-20T08:58:49;1.67;;;1.57;;
23302;SDS011;11820;48.738;9.092;2022-11-20T09:01:16;2.53;;;1.93;;
23302;SDS011;11820;48.738;9.092;2022-11-20T09:03:41;2.40;;;1.80;;
23302;SDS011;11820;48.738;9.092;2022-11-20T09:06:07;2.03;;;1.83;;
23302;SDS011;11820;48.738;9.092;2022-11-20T09:08:32;1.90;;;1.80;;
23302;SDS011;11820;48.738;9.092;2022-11-20T09:10:59;1.60;;;1.50;;
23302;SDS011;11820;48.738;9.092;2022-11-20T09:13:25;1.90;;;1.43;;
23302;SDS011;11820;48.738;9.092;2022-11-20T09:15:58;2.00;;;1.63;;
23302;SDS011;11820;48.738;9.092;2022-11-20T09:18:31;1.83;;;1.40;;
23302;SDS011;11820;48.738;9.092;2022-11-20T09:21:01;1.50;;;1.40;;
23302;SDS011;11820;48.738;9.092;2022-11-20T09:23:30;2.90;;;1.40;;
23302;SDS011;11820;48.738;9.092;2022-11-20T09:25:57;1.40;;;1.30;;
23302;SDS011;11820;48.738;9.092;2022-11-20T09:28:24;1.20;;;0.90;;
23302;SDS011;11820;48.738;9.092;2022-11-20T09:30:50;2.00;;;0.80;;
23302;SDS011;11820;48.738;9.092;2022-11-20T09:33:16;1.13;;;0.70;;
23302;SDS011;11820;48.738;9.092;2022-11-20T09:35:42;0.80;;;0.80;;
23302;SDS011;11820;48.738;9.092;2022-11-20T09:38:08;0.70;;;0.70;;
23302;SDS011;11820;48.738;9.092;2022-11-20T09:40:36;2.03;;;0.90;;
23302;SDS011;11820;48.738;9.092;2022-11-20T09:46:04;1.23;;;0.70;;
23302;SDS011;11820;48.738;9.092;2022-11-20T09:48:45;0.60;;;0.60;;
23302;SDS011;11820;48.738;9.092;2022-11-20T09:51:22;0.70;;;0.70;;
23302;SDS011;11820;48.738;9.092;2022-11-20T09:54:20;0.60;;;0.60;;
23302;SDS011;11820;48.738;9.092;2022-11-20T09:56:56;0.70;;;0.70;;
23302;SDS011;11820;48.738;9.092;2022-11-20T10:02:08;0.60;;;0.60;;
23302;SDS011;11820;48.738;9.092;2022-11-20T10:04:42;0.63;;;0.63;;
23302;SDS011;11820;48.738;9.092;2022-11-20T10:10:31;0.73;;;0.73;;
23302;SDS011;11820;48.738;9.092;2022-11-20T10:16:01;2.00;;;0.90;;
23302;SDS011;11820;48.738;9.092;2022-11-20T10:18:42;0.93;;;0.90;;
23302;SDS011;11820;48.738;9.092;2022-11-20T10:24:52;1.37;;;0.83;;
23302;SDS011;11820;48.738;9.092;2022-11-20T10:32:36;2.83;;;1.27;;
23302;SDS011;11820;48.738;9.092;2022-11-20T10:35:05;1.50;;;0.97;;
23302;SDS011;11820;48.738;9.092;2022-11-20T10:37:55;1.00;;;0.90;;
23302;SDS011;11820;48.738;9.092;2022-11-20T10:42:50;1.07;;;0.97;;
23302;SDS011;11820;48.738;9.092;2022-11-20T10:47:49;1.17;;;0.93;;
23302;SDS011;11820;48.738;9.092;2022-11-20T10:50:18;0.80;;;0.80;;
23302;SDS011;11820;48.738;9.092;2022-11-20T10:55:33;1.03;;;0.93;;
23302;SDS011;11820;48.738;9.092;2022-11-20T10:58:03;1.03;;;0.93;;
23302;SDS011;11820;48.738;9.092;2022-11-20T11:00:47;2.53;;;0.90;;
23302;SDS011;11820;48.738;9.092;2022-11-20T11:03:28;1.00;;;0.90;;
23302;SDS011;11820;48.738;9.092;2022-11-20T11:08:27;1.13;;;1.03;;
23302;SDS011;11820;48.738;9.092;2022-11-20T11:10:59;2.00;;;1.07;;
23302;SDS011;11820;48.738;9.092;2022-11-20T11:13:28;1.67;;;1.10;;
23302;SDS011;11820;48.738;9.092;2022-11-20T11:15:55;2.00;;;1.10;;
23302;SDS011;11820;48.738;9.092;2022-11-20T11:18:31;1.60;;;1.23;;
23302;SDS011;11820;48.738;9.092;2022-11-20T11:21:00;2.20;;;1.50;;
23302;SDS011;11820;48.738;9.092;2022-11-20T11:23:29;1.40;;;1.20;;
23302;SDS011;11820;48.738;9.092;2022-11-20T11:26:05;2.00;;;1.43;;
23302;SDS011;11820;48.738;9.092;2022-11-20T11:28:31;1.83;;;1.07;;
23302;SDS011;11820;48.738;9.092;2022-11-20T11:30:58;3.03;;;1.20;;
23302;SDS011;11820;48.738;9.092;2022-11-20T11:35:53;1.17;;;1.07;;
23302;SDS011;11820;48.738;9.092;2022-11-20T11:40:53;2.17;;;1.43;;
23302;SDS011;11820;48.738;9.092;2022-11-20T11:43:20;2.67;;;1.40;;
23302;SDS011;11820;48.738;9.092;2022-11-20T11:46:33;3.00;;;1.70;;
23302;SDS011;11820;48.738;9.092;2022-11-20T11:51:32;1.53;;;1.20;;
23302;SDS011;11820;48.738;9.092;2022-11-20T11:54:03;2.77;;;1.40;;
23302;SDS011;11820;48.738;9.092;2022-11-20T11:56:38;2.17;;;0.80;;
23302;SDS011;11820;48.738;9.092;2022-11-20T11:59:04;2.40;;;1.10;;
23302;SDS011;11820;48.738;9.092;2022-11-20T12:01:44;2.70;;;1.10;;
23302;SDS011;11820;48.738;9.092;2022-11-20T12:09:58;2.50;;;1.03;;
23302;SDS011;11820;48.738;9.092;2022-11-20T12:12:48;2.70;;;1.57;;
23302;SDS011;11820;48.738;9.092;2022-11-20T12:15:16;2.23;;;1.00;;
23302;SDS011;11820;48.738;9.092;2022-11-20T12:17:50;1.73;;;1.20;;
23302;SDS011;11820;48.738;9.092;2022-11-20T12:20:15;2.17;;;1.30;;
23302;SDS011;11820;48.738;9.092;2022-11-20T12:22:43;2.90;;;1.13;;
23302;SDS011;11820;48.738;9.092;2022-11-20T12:25:28;1.50;;;0.93;;
23302;SDS011;11820;48.738;9.092;2022-11-20T12:30:28;1.97;;;0.93;;
23302;SDS011;11820;48.738;9.092;2022-11-20T12:38:37;3.40;;;0.67;;
23302;SDS011;11820;48.738;9.092;2022-11-20T12:41:11;0.97;;;0.67;;
23302;SDS011;11820;48.738;9.092;2022-11-20T12:49:48;2.57;;;0.83;;
23302;SDS011;11820;48.738;9.092;2022-11-20T13:00:27;2.77;;;0.87;;
23302;SDS011;11820;48.738;9.092;2022-11-20T13:08:25;1.00;;;0.90;;
23302;SDS011;11820;48.738;9.092;2022-11-20T13:10:56;1.10;;;1.03;;
23302;SDS011;11820;48.738;9.092;2022-11-20T13:13:40;1.10;;;0.67;;
23302;SDS011;11820;48.738;9.092;2022-11-20T13:16:22;0.80;;;0.60;;
23302;SDS011;11820;48.738;9.092;2022-11-20T13:18:54;2.47;;;0.97;;
23302;SDS011;11820;48.738;9.092;2022-11-20T13:21:21;2.10;;;0.80;;
23302;SDS011;11820;48.738;9.092;2022-11-20T13:24:06;0.80;;;0.60;;
23302;SDS011;11820;48.738;9.092;2022-11-20T13:26:44;1.40;;;0.70;;
23302;SDS011;11820;48.738;9.092;2022-11-20T13:29:17;0.93;;;0.60;;
23302;SDS011;11820;48.738;9.092;2022-11-20T13:31:44;0.87;;;0.60;;
23302;SDS011;11820;48.738;9.092;2022-11-20T13:34:33;1.10;;;0.77;;
23302;SDS011;11820;48.738;9.092;2022-11-20T13:36:58;1.13;;;0.70;;
23302;SDS011;11820;48.738;9.092;2022-11-20T13:39:26;1.23;;;0.90;;
23302;SDS011;11820;48.738;9.092;2022-11-20T13:41:57;1.57;;;0.80;;
23302;SDS011;11820;48.738;9.092;2022-11-20T13:47:21;2.90;;;0.83;;
23302;SDS011;11820;48.738;9.092;2022-11-20T13:49:49;3.23;;;0.90;;
23302;SDS011;11820;48.738;9.092;2022-11-20T13:58:00;3.50;;;1.00;;
23302;SDS011;11820;48.738;9.092;2022-11-20T14:01:00;3.03;;;0.90;;
23302;SDS011;11820;48.738;9.092;2022-11-20T14:03:34;2.37;;;0.93;;
23302;SDS011;11820;48.738;9.092;2022-11-20T14:06:04;1.90;;;1.10;;
23302;SDS011;11820;48.738;9.092;2022-11-20T14:08:37;2.67;;;1.10;;
23302;SDS011;11820;48.738;9.092;2022-11-20T14:11:17;4.10;;;1.17;;
23302;SDS011;11820;48.738;9.092;2022-11-20T14:16:29;2.73;;;1.03;;
23302;SDS011;11820;48.738;9.092;2022-11-20T14:21:45;1.63;;;0.80;;
23302;SDS011;11820;48.738;9.092;2022-11-20T14:24:18;2.90;;;1.07;;
23302;SDS011;11820;48.738;9.092;2022-11-20T14:26:48;2.13;;;0.97;;
23302;SDS011;11820;48.738;9.092;2022-11-20T14:29:15;1.83;;;0.93;;
23302;SDS011;11820;48.738;9.092;2022-11-20T14:31:43;2.33;;;0.97;;
23302;SDS011;11820;48.738;9.092;2022-11-20T14:34:20;2.27;;;0.90;;
23302;SDS011;11820;48.738;9.092;2022-11-20T14:36:48;1.27;;;0.97;;
23302;SDS011;11820;48.738;9.092;2022-11-20T14:39:21;1.33;;;1.00;;
23302;SDS011;11820;48.738;9.092;2022-11-20T14:41:53;1.60;;;0.80;;
23302;SDS011;11820;48.738;9.092;2022-11-20T14:44:32;2.60;;;1.40;;
23302;SDS011;11820;48.738;9.092;2022-11-20T14:46:59;1.93;;;0.73;;
23302;SDS011;11820;48.738;9.092;2022-11-20T14:49:27;2.60;;;1.13;;
23302;SDS011;11820;48.738;9.092;2022-11-20T14:51:58;1.30;;;0.90;;
23302;SDS011;11820;48.738;9.092;2022-11-20T14:54:25;0.90;;;0.80;;
23302;SDS011;11820;48.738;9.092;2022-11-20T14:56:55;1.93;;;1.00;;
23302;SDS011;11820;48.738;9.092;2022-11-20T14:59:22;1.53;;;1.10;;
23302;SDS011;11820;48.738;9.092;2022-11-20T15:02:02;1.77;;;1.10;;
23302;SDS011;11820;48.738;9.092;2022-11-20T15:04:30;2.40;;;1.30;;
23302;SDS011;11820;48.738;9.092;2022-11-20T15:06:57;1.30;;;0.90;;
23302;SDS011;11820;48.738;9.092;2022-11-20T15:09:24;1.60;;;1.13;;
23302;SDS011;11820;48.738;9.092;2022-11-20T15:11:52;2.10;;;0.90;;
23302;SDS011;11820;48.738;9.092;2022-11-20T15:14:23;2.33;;;1.20;;
23302;SDS011;11820;48.738;9.092;2022-11-20T15:16:49;1.50;;;0.83;;
23302;SDS011;11820;48.738;9.092;2022-11-20T15:19:22;2.13;;;1.33;;
23302;SDS011;11820;48.738;9.092;2022-11-20T15:21:49;6.73;;;1.43;;
23302;SDS011;11820;48.738;9.092;2022-11-20T15:24:14;4.43;;;1.00;;
23302;SDS011;11820;48.738;9.092;2022-11-20T15:26:40;2.90;;;1.20;;
23302;SDS011;11820;48.738;9.092;2022-11-20T15:29:15;1.33;;;1.13;;
23302;SDS011;11820;48.738;9.092;2022-11-20T15:31:45;1.93;;;1.10;;
23302;SDS011;11820;48.738;9.092;2022-11-20T15:34:11;1.40;;;1.10;;
23302;SDS011;11820;48.738;9.092;2022-11-20T15:36:41;2.30;;;1.20;;
23302;SDS011;11820;48.738;9.092;2022-11-20T15:39:07;2.58;;;1.27;;
23302;SDS011;11820;48.738;9.092;2022-11-20T15:41:34;2.53;;;1.17;;
23302;SDS011;11820;48.738;9.092;2022-11-20T15:44:03;2.90;;;1.17;;
23302;SDS011;11820;48.738;9.092;2022-11-20T15:46:30;2.90;;;1.23;;
23302;SDS011;11820;48.738;9.092;2022-11-20T15:49:03;1.73;;;1.20;;
23302;SDS011;11820;48.738;9.092;2022-11-20T15:51:30;1.20;;;1.10;;
23302;SDS011;11820;48.738;9.092;2022-11-20T15:53:58;1.80;;;1.40;;
23302;SDS011;11820;48.738;9.092;2022-11-20T15:56:24;2.77;;;1.67;;
23302;SDS011;11820;48.738;9.092;2022-11-20T15:58:50;3.43;;;2.23;;
23302;SDS011;11820;48.738;9.092;2022-11-20T16:01:17;2.07;;;1.80;;
23302;SDS011;11820;48.738;9.092;2022-11-20T16:03:44;2.87;;;1.93;;
23302;SDS011;11820;48.738;9.092;2022-11-20T16:06:10;5.07;;;2.43;;
23302;SDS011;11820;48.738;9.092;2022-11-20T16:08:35;3.23;;;1.90;;
23302;SDS011;11820;48.738;9.092;2022-11-20T16:11:01;1.73;;;1.13;;
23302;SDS011;11820;48.738;9.092;2022-11-20T16:13:26;2.57;;;1.30;;
23302;SDS011;11820;48.738;9.092;2022-11-20T16:19:04;2.53;;;1.40;;
23302;SDS011;11820;48.738;9.092;2022-11-20T16:21:30;1.73;;;1.43;;
23302;SDS011;11820;48.738;9.092;2022-11-20T16:24:03;1.30;;;1.20;;
23302;SDS011;11820;48.738;9.092;2022-11-20T16:26:30;1.90;;;1.23;;
23302;SDS011;11820;48.738;9.092;2022-11-20T16:28:56;2.30;;;1.40;;
23302;SDS011;11820;48.738;9.092;2022-11-20T16:31:23;3.83;;;1.60;;
23302;SDS011;11820;48.738;9.092;2022-11-20T16:33:58;2.70;;;1.80;;